Time;durP1;ratioP1;P1;durP2;ratioP2;P2;SDS_P1;SDS_P2;PMS_P1;PMS_P2;Temp;Humidity;BMP_temperature;BMP_pressure;BME280_temperature;BME280_humidity;BME280_pressure;Samples;Min_cycle;Max_cycle;Signal;HPM_P1;HPM_P2
2022/12/30 00:02:08;;;;;;;32.30;23.08;;;11.00;95.10;;;;;;6336539;22;20002;-72
2022/12/30 00:04:34;;;;;;;34.53;23.23;;;11.00;95.10;;;;;;6336790;22;20428;-72
2022/12/30 00:07:00;;;;;;;36.33;25.33;;;11.00;95.10;;;;;;6337341;22;20003;-72
2022/12/30 00:09:26;;;;;;;33.70;22.45;;;11.10;95.00;;;;;;6337622;22;19999;-72
2022/12/30 00:11:51;;;;;;;33.90;23.55;;;11.10;94.90;;;;;;6337180;22;20014;-71
2022/12/30 00:34:10;;;;;;;34.22;23.08;;;11.10;95.10;;;;;;6336133;22;20122;-71
2022/12/30 00:36:37;;;;;;;40.28;26.35;;;11.10;95.00;;;;;;6336419;22;19995;-71
2022/12/30 00:39:03;;;;;;;45.38;29.55;;;11.00;95.00;;;;;;6336645;22;20045;-71
2022/12/30 00:44:13;;;;;;;35.95;24.05;;;10.90;95.30;;;;;;6336160;22;20022;-71
2022/12/30 00:46:41;;;;;;;39.47;24.08;;;10.90;95.20;;;;;;6336814;22;20003;-71
2022/12/30 00:57:19;;;;;;;32.25;21.88;;;10.90;95.20;;;;;;6336867;22;20117;-72
2022/12/30 00:59:45;;;;;;;44.20;28.15;;;10.80;95.30;;;;;;6336919;22;20034;-72
2022/12/30 01:02:11;;;;;;;35.97;23.23;;;10.80;95.20;;;;;;6337335;22;20013;-72
2022/12/30 01:04:37;;;;;;;30.90;20.60;;;10.80;95.40;;;;;;6336789;22;20006;-72
2022/12/30 01:07:02;;;;;;;30.13;20.52;;;10.80;95.30;;;;;;6337315;22;20064;-72
2022/12/30 01:09:28;;;;;;;31.73;20.63;;;10.80;95.20;;;;;;6337173;22;20017;-72
2022/12/30 01:12:09;;;;;;;31.60;22.73;;;10.90;95.20;;;;;;6336911;22;20025;-71
2022/12/30 01:14:36;;;;;;;32.15;21.20;;;10.90;95.40;;;;;;6336205;22;20006;-71
2022/12/30 01:17:02;;;;;;;32.95;22.95;;;10.90;95.20;;;;;;6336805;22;19995;-71
2022/12/30 01:19:28;;;;;;;28.48;19.70;;;10.90;95.20;;;;;;6336739;22;19995;-72
2022/12/30 01:21:54;;;;;;;29.45;20.23;;;10.90;95.20;;;;;;6336925;22;20003;-72
2022/12/30 01:24:19;;;;;;;31.55;20.92;;;10.80;95.30;;;;;;6308568;22;20450;-73
2022/12/30 01:26:45;;;;;;;29.70;20.23;;;10.80;95.30;;;;;;6336347;22;20380;-73
2022/12/30 01:29:11;;;;;;;31.50;19.85;;;10.80;95.30;;;;;;6336119;22;20022;-73
2022/12/30 01:31:37;;;;;;;29.50;19.88;;;10.80;95.30;;;;;;6336387;22;20023;-73
2022/12/30 01:34:02;;;;;;;29.13;19.70;;;10.90;95.40;;;;;;6335811;22;20539;-73
2022/12/30 01:36:28;;;;;;;29.52;20.15;;;10.90;95.50;;;;;;6336424;22;20315;-73
2022/12/30 01:38:54;;;;;;;29.20;18.63;;;10.90;95.30;;;;;;6308198;22;20003;-73
2022/12/30 01:41:19;;;;;;;25.88;18.80;;;10.90;95.30;;;;;;6336149;22;19999;-71
2022/12/30 01:43:48;;;;;;;29.05;19.58;;;10.90;95.20;;;;;;6336592;22;20006;-72
2022/12/30 01:46:24;;;;;;;28.13;19.17;;;10.90;95.30;;;;;;6309133;22;20063;-72
2022/12/30 01:48:51;;;;;;;25.13;17.50;;;11.00;95.30;;;;;;6335878;22;20003;-71
2022/12/30 01:51:28;;;;;;;26.77;18.48;;;11.00;95.30;;;;;;6336234;22;20060;-71
2022/12/30 01:53:56;;;;;;;25.83;17.45;;;11.10;95.30;;;;;;6336702;22;20316;-71
2022/12/30 01:56:36;;;;;;;26.27;18.00;;;11.10;95.20;;;;;;6336363;22;20429;-72
2022/12/30 01:59:12;;;;;;;24.15;17.13;;;11.20;95.10;;;;;;6336226;22;20051;-72
2022/12/30 02:01:38;;;;;;;24.20;16.88;;;11.20;95.00;;;;;;6336272;22;20440;-72
2022/12/30 02:04:11;;;;;;;25.83;18.13;;;11.20;95.00;;;;;;6335839;22;19999;-72
2022/12/30 02:06:48;;;;;;;25.35;17.85;;;11.20;94.90;;;;;;6308591;22;20003;-72
2022/12/30 02:09:14;;;;;;;24.67;16.17;;;11.20;94.80;;;;;;6337463;22;20010;-72
2022/12/30 02:11:42;;;;;;;25.15;17.48;;;11.30;94.80;;;;;;6337770;22;20003;-72
2022/12/30 02:14:09;;;;;;;24.73;17.52;;;11.30;94.70;;;;;;6338093;22;20003;-72
2022/12/30 02:17:02;;;;;;;24.08;17.50;;;11.30;95.10;;;;;;6338150;22;20006;-71
2022/12/30 02:20:09;;;;;;;24.88;17.92;;;11.30;94.80;;;;;;6338508;22;20078;-71
2022/12/30 02:23:03;;;;;;;24.75;16.83;;;11.30;94.80;;;;;;6285181;22;20078;-73
2022/12/30 02:26:09;;;;;;;27.95;17.58;;;11.30;94.70;;;;;;6338263;22;20006;-71
2022/12/30 02:28:49;;;;;;;25.30;16.65;;;11.30;94.80;;;;;;6338475;22;20313;-72
2022/12/30 02:31:34;;;;;;;21.88;15.32;;;11.30;94.80;;;;;;6310139;22;20471;-72
2022/12/30 02:34:08;;;;;;;26.65;16.52;;;11.30;94.80;;;;;;6337197;22;19999;-72
2022/12/30 02:36:40;;;;;;;22.50;15.43;;;11.30;94.80;;;;;;6337496;22;20048;-72
2022/12/30 02:39:33;;;;;;;24.63;15.35;;;11.30;94.70;;;;;;6338092;22;20003;-72
2022/12/30 02:45:11;;;;;;;24.63;16.73;;;11.30;94.70;;;;;;6337759;22;20451;-72
2022/12/30 02:47:44;;;;;;;25.08;16.48;;;11.30;94.70;;;;;;6337946;22;20006;-71
2022/12/30 02:53:01;;;;;;;24.95;17.55;;;11.30;94.90;;;;;;6338023;22;20071;-72
2022/12/30 02:55:27;;;;;;;23.23;16.73;;;11.30;94.60;;;;;;6310899;22;20003;-71
2022/12/30 02:57:52;;;;;;;22.42;15.52;;;11.30;94.60;;;;;;6310247;22;20086;-72
2022/12/30 03:06:34;;;;;;;26.35;16.90;;;11.30;94.70;;;;;;6337655;22;20130;-72
2022/12/30 03:09:25;;;;;;;24.05;16.83;;;11.30;94.60;;;;;;6309985;22;20441;-71
2022/12/30 03:12:09;;;;;;;24.92;16.40;;;11.20;94.60;;;;;;6337957;22;20003;-71
2022/12/30 03:14:56;;;;;;;27.85;18.70;;;11.20;94.70;;;;;;6338051;22;20034;-72
2022/12/30 03:17:36;;;;;;;28.73;19.10;;;11.20;94.70;;;;;;6337902;22;20048;-72
2022/12/30 03:20:08;;;;;;;23.08;15.98;;;11.10;94.90;;;;;;6337478;22;20034;-72
2022/12/30 03:28:07;;;;;;;27.42;17.17;;;11.10;95.10;;;;;;6337642;22;20045;-72
2022/12/30 03:30:41;;;;;;;26.65;17.58;;;11.10;95.10;;;;;;6337773;22;20019;-72
2022/12/30 03:33:07;;;;;;;26.90;17.70;;;11.00;95.10;;;;;;6335996;22;20002;-72
2022/12/30 03:35:37;;;;;;;24.60;17.05;;;11.10;95.10;;;;;;6336988;22;20329;-72
2022/12/30 03:38:03;;;;;;;;;;;11.10;95.10;;;;;;6337424;22;20484;-72
2022/12/30 03:40:34;;;;;;;23.13;16.38;;;11.10;95.10;;;;;;6337688;22;19979;-73
2022/12/30 03:43:02;;;;;;;27.63;17.08;;;11.10;95.10;;;;;;6337247;22;20010;-73
2022/12/30 03:45:28;;;;;;;28.15;19.70;;;11.10;95.10;;;;;;6337500;22;20003;-73
2022/12/30 03:47:53;;;;;;;23.80;15.70;;;11.00;95.10;;;;;;6337265;22;20031;-72
2022/12/30 03:50:19;;;;;;;24.40;16.48;;;11.00;95.10;;;;;;6337736;22;20006;-71
2022/12/30 03:52:45;;;;;;;23.95;16.73;;;11.00;95.20;;;;;;6309736;22;20002;-72
2022/12/30 03:55:11;;;;;;;23.13;17.20;;;11.00;95.30;;;;;;6337117;22;19998;-72
2022/12/30 03:57:36;;;;;;;24.25;16.38;;;11.10;95.20;;;;;;6337166;22;19991;-73
2022/12/30 04:00:07;;;;;;;29.95;16.90;;;11.10;95.20;;;;;;6337589;22;20432;-72
2022/12/30 04:02:33;;;;;;;;;;;11.20;95.10;;;;;;6337563;22;20002;-72
2022/12/30 04:04:59;;;;;;;25.02;15.77;;;11.20;95.00;;;;;;6336594;22;19898;-72
2022/12/30 04:07:25;;;;;;;23.20;16.23;;;11.20;94.90;;;;;;6336972;22;20074;-72
2022/12/30 04:09:50;;;;;;;21.13;15.40;;;11.20;94.90;;;;;;6337128;22;20111;-72
2022/12/30 04:12:16;;;;;;;23.80;15.35;;;11.20;94.80;;;;;;6336670;22;20417;-72
2022/12/30 04:14:42;;;;;;;24.70;15.90;;;11.20;94.80;;;;;;6310173;22;20003;-72
2022/12/30 04:17:07;;;;;;;26.45;16.40;;;11.30;94.90;;;;;;6336814;22;19998;-71
2022/12/30 04:19:33;;;;;;;21.45;14.85;;;11.30;94.70;;;;;;6336825;22;20047;-71
2022/12/30 04:21:59;;;;;;;23.15;15.57;;;11.20;94.70;;;;;;6337100;22;20076;-71
2022/12/30 04:24:24;;;;;;;23.13;16.75;;;11.20;94.70;;;;;;6308951;22;20013;-71
2022/12/30 04:26:50;;;;;;;24.48;16.23;;;11.30;94.90;;;;;;6337104;22;20005;-71
2022/12/30 04:29:16;;;;;;;24.55;17.30;;;11.20;94.70;;;;;;6309269;22;20029;-71
2022/12/30 04:31:42;;;;;;;23.17;15.80;;;11.20;94.70;;;;;;6337217;22;20037;-72
2022/12/30 04:34:08;;;;;;;21.17;14.98;;;11.20;94.70;;;;;;6336797;22;19999;-71
2022/12/30 04:36:34;;;;;;;23.73;15.50;;;11.30;94.80;;;;;;6337209;22;20381;-72
2022/12/30 04:38:59;;;;;;;22.05;15.38;;;11.30;94.70;;;;;;6335974;22;20087;-72
2022/12/30 04:41:25;;;;;;;27.30;16.65;;;11.30;94.70;;;;;;6308490;22;20123;-73
2022/12/30 04:43:51;;;;;;;22.65;15.85;;;11.30;94.60;;;;;;6336535;22;20352;-73
2022/12/30 04:46:17;;;;;;;24.40;15.65;;;11.30;94.50;;;;;;6337341;22;20740;-72
2022/12/30 04:48:42;;;;;;;23.20;15.98;;;11.40;94.40;;;;;;6337008;22;20006;-73
2022/12/30 04:51:08;;;;;;;23.45;16.92;;;11.40;94.40;;;;;;6336794;22;20002;-72
2022/12/30 04:53:34;;;;;;;22.23;15.32;;;11.40;94.40;;;;;;6336707;22;20077;-72
2022/12/30 04:55:59;;;;;;;20.63;15.15;;;11.40;94.40;;;;;;6336786;22;20003;-74
2022/12/30 04:58:25;;;;;;;21.85;16.45;;;11.30;94.30;;;;;;6309380;22;20013;-71
2022/12/30 05:00:52;;;;;;;26.00;18.05;;;11.30;94.30;;;;;;6337091;22;20037;-72
2022/12/30 05:03:18;;;;;;;22.98;16.00;;;11.30;94.30;;;;;;6309313;22;20014;-72
2022/12/30 05:05:44;;;;;;;25.88;16.90;;;11.30;94.30;;;;;;6309812;22;20041;-71
2022/12/30 05:08:10;;;;;;;24.95;16.80;;;11.30;94.30;;;;;;6336330;22;20005;-71
2022/12/30 05:10:39;;;;;;;25.98;17.35;;;11.30;94.30;;;;;;6336991;22;20318;-71
2022/12/30 05:13:05;;;;;;;28.17;17.40;;;11.30;94.30;;;;;;6336310;22;20003;-71
2022/12/30 05:15:31;;;;;;;26.90;18.23;;;9.60;93.90;;;;;;6309703;22;20334;-71
2022/12/30 05:17:57;;;;;;;26.15;17.73;;;11.30;94.20;;;;;;6336394;22;19994;-71
2022/12/30 05:20:22;;;;;;;24.42;17.50;;;11.30;94.30;;;;;;6336952;22;20005;-70
2022/12/30 05:22:48;;;;;;;23.48;17.23;;;11.30;94.30;;;;;;6336005;22;20018;-71
2022/12/30 05:27:59;;;;;;;27.30;18.17;;;11.30;94.30;;;;;;6336654;22;20017;-72
2022/12/30 05:30:25;;;;;;;26.55;17.88;;;11.30;94.30;;;;;;6303585;22;20090;-71
2022/12/30 05:32:51;;;;;;;26.38;18.13;;;11.30;94.30;;;;;;6277033;22;20011;-72
2022/12/30 05:35:17;;;;;;;24.92;18.10;;;11.30;94.30;;;;;;6278538;22;20003;-71
2022/12/30 05:37:42;;;;;;;26.38;17.80;;;11.30;94.40;;;;;;6304180;22;20021;-71
2022/12/30 05:40:09;;;;;;;25.77;18.60;;;11.30;94.40;;;;;;6304979;22;20049;-71
2022/12/30 05:42:35;;;;;;;28.55;19.17;;;11.30;94.40;;;;;;6305432;22;20003;-71
2022/12/30 05:45:01;;;;;;;24.67;17.23;;;11.30;94.40;;;;;;6306045;22;20013;-70
2022/12/30 05:47:26;;;;;;;30.55;19.30;;;11.20;94.40;;;;;;6307306;22;20003;-72
2022/12/30 05:49:52;;;;;;;26.40;18.75;;;11.10;94.60;;;;;;6307427;22;20071;-72
2022/12/30 05:52:18;;;;;;;24.00;17.50;;;11.00;94.70;;;;;;6305668;22;20082;-71
2022/12/30 05:54:43;;;;;;;30.35;21.70;;;10.90;94.80;;;;;;6306061;22;19996;-71
2022/12/30 05:57:09;;;;;;;30.35;20.05;;;10.80;95.10;;;;;;6306408;22;20030;-71
2022/12/30 05:59:35;;;;;;;24.00;17.77;;;10.70;95.20;;;;;;6279606;22;20018;-71
2022/12/30 06:02:02;;;;;;;26.05;18.65;;;10.70;95.20;;;;;;6306607;22;20049;-71
2022/12/30 06:04:27;;;;;;;27.20;19.23;;;10.70;95.20;;;;;;6306027;22;20000;-71
2022/12/30 06:06:53;;;;;;;30.73;21.75;;;10.80;95.20;;;;;;6306119;22;20013;-72
2022/12/30 06:09:19;;;;;;;27.67;20.08;;;10.80;95.20;;;;;;6307324;22;20027;-71
2022/12/30 06:11:45;;;;;;;34.38;24.52;;;10.70;95.40;;;;;;6306201;22;20007;-72
2022/12/30 06:14:14;;;;;;;28.15;20.75;;;10.60;95.60;;;;;;6306730;22;20004;-71
2022/12/30 06:16:41;;;;;;;28.52;19.30;;;10.60;95.70;;;;;;6306928;22;20002;-72
2022/12/30 06:19:07;;;;;;;24.80;18.13;;;10.60;95.60;;;;;;6305845;22;19999;-71
2022/12/30 06:21:33;;;;;;;30.08;20.65;;;10.70;95.50;;;;;;6306698;22;19999;-71
2022/12/30 06:23:59;;;;;;;30.60;20.17;;;10.70;95.60;;;;;;6305857;22;20045;-71
2022/12/30 06:26:25;;;;;;;30.88;21.75;;;10.70;95.50;;;;;;6306075;22;20000;-71
2022/12/30 06:28:50;;;;;;;27.23;19.55;;;10.70;95.60;;;;;;6309155;22;20007;-72
2022/12/30 06:31:16;;;;;;;25.10;19.30;;;10.60;95.60;;;;;;6337659;22;20429;-72
2022/12/30 06:33:42;;;;;;;25.83;18.80;;;10.70;95.60;;;;;;6337678;22;20768;-72
2022/12/30 06:36:08;;;;;;;26.85;18.77;;;10.80;95.50;;;;;;6337188;22;19995;-71
2022/12/30 06:38:34;;;;;;;27.92;19.90;;;10.80;95.50;;;;;;6337864;22;20752;-73
2022/12/30 06:41:00;;;;;;;27.58;19.67;;;10.90;95.40;;;;;;6336632;22;19995;-72
2022/12/30 06:43:26;;;;;;;31.50;21.23;;;10.90;95.40;;;;;;6337271;22;20680;-72
2022/12/30 06:45:51;;;;;;;29.85;20.60;;;10.90;95.30;;;;;;6337939;22;20056;-71
2022/12/30 06:48:17;;;;;;;29.77;20.60;;;11.00;95.30;;;;;;6337583;22;20381;-71
2022/12/30 06:50:43;;;;;;;32.22;20.90;;;11.00;95.20;;;;;;6336976;22;19999;-72
2022/12/30 06:53:09;;;;;;;30.67;21.58;;;11.10;95.20;;;;;;6337507;22;20010;-71
2022/12/30 06:55:35;;;;;;;27.83;19.75;;;11.10;95.10;;;;;;6337266;22;20495;-72
2022/12/30 06:58:02;;;;;;;29.05;20.95;;;11.10;95.00;;;;;;6337224;22;20444;-72
2022/12/30 07:00:33;;;;;;;28.23;19.73;;;11.10;95.00;;;;;;6310127;22;20302;-72
2022/12/30 07:02:58;;;;;;;;;;;11.10;95.00;;;;;;6338271;22;20026;-72
2022/12/30 07:05:24;;;;;;;29.15;19.85;;;11.10;94.80;;;;;;6310221;22;20312;-72
2022/12/30 07:07:50;;;;;;;27.55;19.75;;;11.10;95.00;;;;;;6337136;22;20009;-70
2022/12/30 07:10:16;;;;;;;32.65;22.40;;;11.10;95.00;;;;;;6337372;22;20010;-70
2022/12/30 07:12:42;;;;;;;31.98;22.88;;;11.10;94.90;;;;;;6337365;22;20018;-70
2022/12/30 07:15:08;;;;;;;37.13;25.60;;;11.10;94.90;;;;;;6337412;22;20324;-71
2022/12/30 07:17:34;;;;;;;32.00;22.98;;;10.90;95.10;;;;;;6337405;22;20121;-71
2022/12/30 07:19:59;;;;;;;30.48;21.63;;;10.80;95.40;;;;;;6336677;22;20023;-79
2022/12/30 07:22:25;;;;;;;29.42;20.92;;;10.70;95.50;;;;;;6337424;22;20070;-79
2022/12/30 07:24:51;;;;;;;36.25;22.67;;;10.70;95.40;;;;;;6337644;22;20421;-79
2022/12/30 07:27:16;;;;;;;28.48;19.48;;;10.60;95.70;;;;;;6337523;22;20114;-77
2022/12/30 07:29:42;;;;;;;28.50;20.90;;;10.60;95.60;;;;;;6338245;22;20017;-77
2022/12/30 07:32:09;;;;;;;27.67;20.20;;;10.70;95.80;;;;;;6336682;22;20413;-71
2022/12/30 07:34:36;;;;;;;29.80;20.73;;;10.70;95.60;;;;;;6337499;22;20078;-77
2022/12/30 07:37:03;;;;;;;31.85;21.20;;;10.80;95.60;;;;;;6339229;22;20048;-77
2022/12/30 07:39:29;;;;;;;28.75;20.98;;;10.80;95.50;;;;;;6312945;22;20003;-77
2022/12/30 07:41:55;;;;;;;30.80;20.70;;;10.90;95.50;;;;;;6340005;22;20333;-77
2022/12/30 07:44:21;;;;;;;30.70;20.77;;;10.90;95.40;;;;;;6341543;22;20006;-71
2022/12/30 07:46:47;;;;;;;27.33;20.88;;;11.00;95.40;;;;;;6338239;22;20317;-77
2022/12/30 07:49:13;;;;;;;30.10;19.40;;;11.00;95.30;;;;;;6338493;22;20061;-77
2022/12/30 07:51:39;;;;;;;26.38;18.83;;;11.00;95.20;;;;;;6338647;22;19999;-79
2022/12/30 07:54:05;;;;;;;27.27;19.35;;;11.10;95.20;;;;;;6310909;22;20003;-76
2022/12/30 07:56:30;;;;;;;26.98;19.75;;;11.10;95.20;;;;;;6337782;22;19999;-78
2022/12/30 07:58:58;;;;;;;26.30;18.98;;;11.10;95.00;;;;;;6338155;22;19998;-71
2022/12/30 08:01:24;;;;;;;26.17;19.35;;;11.10;94.90;;;;;;6338507;22;20048;-71
2022/12/30 08:03:50;;;;;;;28.15;19.67;;;11.00;95.00;;;;;;6339223;22;20003;-72
2022/12/30 08:06:17;;;;;;;25.45;18.45;;;10.90;95.10;;;;;;6337962;22;20400;-71
2022/12/30 08:08:44;;;;;;;24.67;17.23;;;10.90;95.10;;;;;;6338347;22;19999;-71
2022/12/30 08:11:12;;;;;;;22.70;18.05;;;10.90;95.20;;;;;;6338624;22;19995;-72
2022/12/30 08:13:39;;;;;;;27.10;18.45;;;10.90;95.30;;;;;;6338262;22;20475;-71
2022/12/30 08:16:10;;;;;;;23.83;17.00;;;11.00;95.40;;;;;;6309925;22;20003;-77
2022/12/30 08:18:37;;;;;;;23.95;17.30;;;11.00;95.30;;;;;;6335732;22;19994;-71
2022/12/30 08:21:04;;;;;;;21.92;16.52;;;11.10;95.30;;;;;;6338190;22;19994;-72
2022/12/30 08:23:31;;;;;;;20.95;16.30;;;11.10;95.20;;;;;;6337162;22;20018;-77
2022/12/30 08:26:03;;;;;;;21.88;15.20;;;11.20;95.00;;;;;;6338987;22;20105;-77
2022/12/30 08:28:29;;;;;;;20.67;15.75;;;11.10;94.90;;;;;;6338713;22;20068;-77
2022/12/30 08:30:56;;;;;;;22.20;15.38;;;11.10;94.90;;;;;;6337942;22;20444;-77
2022/12/30 08:33:22;;;;;;;28.02;16.83;;;11.10;94.90;;;;;;6338296;22;20089;-77
2022/12/30 08:35:47;;;;;;;19.30;15.38;;;11.10;94.90;;;;;;6338743;22;20022;-78
2022/12/30 08:38:13;;;;;;;26.55;18.15;;;11.10;95.00;;;;;;6339075;22;19995;-78
2022/12/30 08:40:39;;;;;;;27.08;17.48;;;11.10;94.90;;;;;;6338212;22;19995;-77
2022/12/30 08:43:05;;;;;;;22.70;16.27;;;11.00;94.80;;;;;;6336837;22;20007;-79
2022/12/30 08:45:30;;;;;;;24.05;16.35;;;11.00;95.00;;;;;;6334686;22;20334;-78
2022/12/30 08:47:56;;;;;;;25.60;16.92;;;11.00;95.00;;;;;;6338817;22;20002;-78
2022/12/30 08:50:22;;;;;;;22.65;17.25;;;11.00;95.10;;;;;;6338211;22;20002;-72
2022/12/30 08:52:48;;;;;;;23.77;15.65;;;11.00;95.00;;;;;;6337114;22;20003;-72
2022/12/30 08:55:13;;;;;;;21.30;15.85;;;11.00;95.00;;;;;;6338171;22;20078;-72
2022/12/30 08:57:39;;;;;;;21.33;15.07;;;11.00;95.00;;;;;;6311011;22;20033;-73
2022/12/30 09:00:07;;;;;;;23.48;16.25;;;11.10;95.10;;;;;;6337483;22;20006;-72
2022/12/30 09:02:34;;;;;;;21.75;15.43;;;11.10;95.10;;;;;;6336103;22;20085;-72
2022/12/30 09:05:00;;;;;;;24.00;16.95;;;11.10;95.10;;;;;;6338352;22;20405;-72
2022/12/30 09:07:27;;;;;;;24.65;17.85;;;11.10;95.10;;;;;;6338828;22;20022;-72
2022/12/30 09:09:53;;;;;;;21.42;15.77;;;11.10;95.00;;;;;;6338199;22;20077;-72
2022/12/30 09:12:18;;;;;;;22.10;16.63;;;11.10;95.10;;;;;;6338999;22;20005;-72
2022/12/30 09:14:44;;;;;;;21.70;16.63;;;11.10;95.10;;;;;;6338272;22;20058;-72
2022/12/30 09:17:10;;;;;;;24.17;17.30;;;11.10;95.10;;;;;;6338078;22;20474;-72
2022/12/30 09:19:36;;;;;;;20.38;15.07;;;11.10;95.10;;;;;;6338355;22;19991;-72
2022/12/30 09:22:01;;;;;;;27.58;18.27;;;11.00;95.10;;;;;;6309480;22;20007;-72
2022/12/30 09:24:27;;;;;;;31.20;20.00;;;11.00;95.20;;;;;;6338420;22;20003;-72
2022/12/30 09:26:53;;;;;;;23.45;17.50;;;10.80;95.40;;;;;;6337890;22;20002;-72
2022/12/30 09:29:18;;;;;;;29.38;21.00;;;10.90;95.50;;;;;;6338616;22;20371;-72
2022/12/30 09:31:44;;;;;;;25.63;18.02;;;10.80;95.50;;;;;;6309955;22;20010;-72
2022/12/30 09:34:11;;;;;;;23.38;16.50;;;10.80;95.60;;;;;;6338231;22;20022;-72
2022/12/30 09:36:37;;;;;;;24.42;16.85;;;10.80;95.60;;;;;;6338384;22;20447;-72
2022/12/30 09:39:02;;;;;;;28.13;17.80;;;10.90;95.60;;;;;;6338720;22;20078;-73
2022/12/30 09:44:47;;;;;;;22.42;16.63;;;11.00;95.50;;;;;;6337666;22;20014;-72
2022/12/30 09:47:27;;;;;;;23.75;15.93;;;11.00;95.50;;;;;;6326917;22;20086;-72
2022/12/30 09:50:03;;;;;;;28.17;17.83;;;11.10;95.60;;;;;;6337901;22;20002;-72
2022/12/30 09:52:44;;;;;;;23.25;17.63;;;11.10;95.40;;;;;;6336613;22;20007;-72
2022/12/30 09:55:27;;;;;;;23.77;16.38;;;11.20;95.40;;;;;;6337436;22;19995;-72
2022/12/30 09:57:58;;;;;;;21.73;15.85;;;11.20;95.40;;;;;;6338614;22;20074;-72
2022/12/30 10:00:26;;;;;;;23.40;16.63;;;11.20;95.40;;;;;;6337993;22;20070;-73
2022/12/30 10:03:05;;;;;;;24.48;16.25;;;11.30;95.30;;;;;;6337777;22;20067;-72
2022/12/30 10:06:04;;;;;;;24.17;16.63;;;11.30;95.30;;;;;;6338446;22;20437;-72
2022/12/30 10:08:42;;;;;;;23.85;16.67;;;11.40;95.30;;;;;;6337765;22;20418;-72
2022/12/30 10:11:27;;;;;;;23.13;16.15;;;11.40;95.30;;;;;;6338010;22;20436;-72
2022/12/30 10:13:58;;;;;;;23.65;16.40;;;11.30;95.30;;;;;;6335129;22;20003;-72
2022/12/30 10:16:48;;;;;;;23.58;16.50;;;11.30;95.30;;;;;;6337582;22;19995;-72
2022/12/30 10:19:25;;;;;;;21.45;14.48;;;11.30;95.40;;;;;;6338132;22;19999;-72
2022/12/30 10:22:11;;;;;;;26.02;18.30;;;11.30;95.60;;;;;;6337343;22;20006;-72
2022/12/30 10:24:57;;;;;;;27.95;18.38;;;11.40;95.50;;;;;;6310809;22;20095;-73
2022/12/30 10:27:31;;;;;;;22.98;16.42;;;11.40;95.60;;;;;;6337132;22;20003;-73
2022/12/30 10:29:56;;;;;;;23.42;16.27;;;11.50;95.50;;;;;;6337513;22;20037;-72
2022/12/30 10:32:27;;;;;;;26.67;17.63;;;11.60;95.40;;;;;;6338248;22;20428;-72
2022/12/30 10:35:08;;;;;;;22.52;16.63;;;11.60;95.30;;;;;;6339522;22;20033;-72
2022/12/30 10:37:36;;;;;;;23.48;16.45;;;11.60;95.30;;;;;;6339061;22;20070;-72
2022/12/30 10:40:09;;;;;;;23.02;16.35;;;11.70;95.30;;;;;;6339468;22;19999;-72
2022/12/30 10:42:53;;;;;;;23.83;17.77;;;11.70;95.30;;;;;;6338648;22;20006;-72
2022/12/30 10:45:34;;;;;;;23.90;18.02;;;11.70;95.10;;;;;;6338693;22;20003;-72
2022/12/30 10:47:59;;;;;;;;;;;11.70;95.30;;;;;;6336598;22;20059;-72
2022/12/30 10:50:39;;;;;;;27.73;16.00;;;11.70;95.40;;;;;;6338245;22;19898;-71
2022/12/30 10:53:12;;;;;;;21.88;15.95;;;11.70;95.40;;;;;;6338272;22;20009;-73
2022/12/30 10:56:05;;;;;;;23.67;18.20;;;11.80;95.40;;;;;;6311583;22;20068;-73
2022/12/30 10:58:37;;;;;;;23.23;15.95;;;11.80;95.30;;;;;;6309243;22;19999;-73
2022/12/30 11:01:03;;;;;;;23.30;17.05;;;11.80;95.30;;;;;;6311365;22;19998;-76
2022/12/30 11:03:32;;;;;;;26.55;18.52;;;11.90;95.20;;;;;;6311890;22;20013;-80
2022/12/30 11:06:21;;;;;;;23.95;17.50;;;11.90;95.00;;;;;;6338858;22;19999;-81
2022/12/30 11:08:49;;;;;;;19.83;15.05;;;11.90;95.00;;;;;;6339479;22;20003;-80
2022/12/30 11:11:15;;;;;;;21.55;15.45;;;12.00;95.10;;;;;;6339679;22;20422;-80
2022/12/30 11:16:27;;;;;;;21.92;15.30;;;12.30;94.70;;;;;;6339314;22;20010;-81
2022/12/30 11:18:56;;;;;;;24.42;14.93;;;12.50;94.80;;;;;;6337884;22;19999;-81
2022/12/30 11:21:36;;;;;;;19.20;14.73;;;12.70;94.60;;;;;;6311327;22;20003;-81
2022/12/30 11:24:03;;;;;;;21.40;14.00;;;12.90;93.90;;;;;;6338948;22;19999;-80
2022/12/30 11:26:32;;;;;;;21.30;14.57;;;13.10;94.00;;;;;;6339351;22;20086;-81
2022/12/30 11:29:05;;;;;;;20.98;14.35;;;13.20;93.70;;;;;;6311377;22;19999;-80
2022/12/30 11:31:41;;;;;;;19.42;14.23;;;13.20;93.60;;;;;;6311186;22;20321;-80
2022/12/30 11:34:31;;;;;;;18.88;13.52;;;13.30;93.70;;;;;;6338477;22;20018;-80
2022/12/30 11:36:58;;;;;;;19.92;14.18;;;13.50;93.70;;;;;;6339888;22;19995;-80
2022/12/30 11:39:26;;;;;;;18.23;13.70;;;13.80;93.50;;;;;;6338055;22;20340;-80
2022/12/30 11:41:55;;;;;;;21.10;14.13;;;13.80;93.20;;;;;;6306681;22;20340;-78
2022/12/30 11:44:27;;;;;;;17.70;13.40;;;13.90;92.80;;;;;;6331591;22;20475;-78
2022/12/30 11:46:55;;;;;;;18.98;13.75;;;14.00;92.50;;;;;;6331132;22;20052;-80
2022/12/30 11:49:47;;;;;;;17.27;12.30;;;14.10;92.10;;;;;;6333798;22;20042;-77
2022/12/30 11:52:19;;;;;;;15.75;12.63;;;14.20;92.30;;;;;;6338522;22;20022;-79
2022/12/30 11:54:50;;;;;;;19.20;14.07;;;14.30;92.20;;;;;;6338881;22;20005;-78
2022/12/30 11:57:50;;;;;;;17.02;12.52;;;14.40;91.90;;;;;;6310757;22;19998;-78
2022/12/30 12:00:15;;;;;;;17.90;11.82;;;14.40;91.80;;;;;;6304188;22;20010;-78
2022/12/30 12:02:49;;;;;;;16.33;12.70;;;14.30;91.60;;;;;;6338680;22;20003;-78
2022/12/30 12:05:40;;;;;;;17.55;13.05;;;14.20;91.50;;;;;;6338504;22;19999;-78
2022/12/30 12:08:31;;;;;;;19.60;14.27;;;13.90;91.50;;;;;;6338741;22;20081;-78
2022/12/30 12:11:01;;;;;;;17.20;12.20;;;13.70;91.70;;;;;;6318654;22;20003;-78
2022/12/30 12:13:55;;;;;;;15.90;11.48;;;13.50;92.10;;;;;;6338115;22;20005;-78
2022/12/30 12:16:50;;;;;;;15.82;11.50;;;13.50;92.30;;;;;;6310969;22;20345;-78
2022/12/30 12:19:44;;;;;;;15.27;11.10;;;13.40;92.50;;;;;;6320280;22;20038;-78
2022/12/30 12:22:45;;;;;;;16.02;12.23;;;13.30;92.50;;;;;;6338665;22;20006;-77
2022/12/30 12:25:20;;;;;;;19.67;13.65;;;13.30;92.60;;;;;;6311358;22;20003;-80
2022/12/30 12:27:48;;;;;;;19.25;11.98;;;13.20;92.60;;;;;;6310976;22;20007;-78
2022/12/30 12:30:14;;;;;;;18.67;11.70;;;13.20;92.80;;;;;;6338322;22;20081;-77
2022/12/30 12:33:04;;;;;;;15.43;11.23;;;13.10;92.90;;;;;;6336826;22;20025;-77
2022/12/30 12:35:44;;;;;;;16.23;11.40;;;13.10;93.00;;;;;;6337226;22;20002;-77
2022/12/30 12:38:37;;;;;;;15.90;11.65;;;13.00;93.10;;;;;;6338143;22;20303;-78
2022/12/30 12:41:46;;;;;;;15.95;11.40;;;13.10;93.10;;;;;;6338344;22;19995;-79
2022/12/30 12:44:45;;;;;;;13.60;9.55;;;13.10;93.20;;;;;;6336571;22;20437;-78
2022/12/30 12:47:32;;;;;;;14.05;9.98;;;13.10;93.20;;;;;;6337715;22;19999;-79
2022/12/30 12:50:06;;;;;;;14.48;10.38;;;13.10;93.20;;;;;;6338372;22;20387;-78
2022/12/30 12:53:02;;;;;;;13.60;9.82;;;13.20;93.30;;;;;;6337098;22;20003;-79
2022/12/30 12:55:37;;;;;;;18.38;9.18;;;13.20;93.10;;;;;;6337590;22;19998;-78
2022/12/30 12:58:11;;;;;;;13.25;10.10;;;13.20;93.10;;;;;;6337875;22;20022;-78
2022/12/30 13:01:04;;;;;;;11.55;9.30;;;13.20;93.20;;;;;;6338071;22;19998;-78
2022/12/30 13:03:57;;;;;;;13.25;9.20;;;13.20;93.20;;;;;;6337569;22;20003;-80
2022/12/30 13:06:27;;;;;;;15.90;10.38;;;13.20;93.20;;;;;;6297107;22;20002;-81
2022/12/30 13:09:05;;;;;;;13.90;10.30;;;13.30;93.20;;;;;;6337848;22;20013;-80
2022/12/30 13:11:56;;;;;;;14.52;10.55;;;13.40;93.10;;;;;;6338570;22;20075;-80
2022/12/30 13:14:30;;;;;;;15.25;10.38;;;13.40;93.10;;;;;;6331874;22;20003;-80
2022/12/30 13:16:58;;;;;;;13.40;9.63;;;13.40;93.10;;;;;;6334388;22;20090;-81
2022/12/30 13:19:34;;;;;;;12.43;9.40;;;13.50;93.00;;;;;;6336175;22;19999;-80
2022/12/30 13:22:09;;;;;;;13.65;9.98;;;13.70;93.00;;;;;;6337183;22;19998;-80
2022/12/30 13:24:48;;;;;;;12.85;10.25;;;14.20;93.20;;;;;;6309332;22;20139;-80
2022/12/30 13:27:23;;;;;;;14.68;10.18;;;14.40;92.40;;;;;;6337788;22;20044;-80
2022/12/30 13:29:50;;;;;;;14.60;9.93;;;14.40;91.40;;;;;;6337144;22;20394;-80
2022/12/30 13:32:50;;;;;;;13.82;9.98;;;14.20;91.50;;;;;;6336716;22;20007;-80
2022/12/30 13:35:38;;;;;;;12.30;9.35;;;14.10;91.80;;;;;;6325190;22;20002;-80
2022/12/30 13:38:36;;;;;;;14.18;9.63;;;14.10;92.00;;;;;;6309312;22;20081;-80
2022/12/30 13:41:20;;;;;;;12.65;9.40;;;14.00;91.90;;;;;;6336555;22;20044;-81
2022/12/30 13:43:54;;;;;;;16.10;11.07;;;13.90;92.00;;;;;;6337595;22;20048;-81
2022/12/30 13:46:32;;;;;;;16.40;10.57;;;13.90;92.10;;;;;;6337955;22;20077;-80